YOO weather

Toronto/Oshawa Executive Airport
Oshawa, Ontario, Canada

Public forecast

Using degrees Celsius for public forecast. Weather courtesy of forecast.io.

Current aviation weather report (METAR) for Toronto/Oshawa Executive Airport

Retrieved 2019/10/22 00:00 UTC (19 minutes ago):

CYOO 220000Z AUTO 09013G22KT 9SM BKN200 OVC220 15/07 A2990 RMK SLP130 DENSITY ALT 600FT

Aviation forecast (TAF) for Toronto/Oshawa Executive Airport

Retrieved 2019/10/21 20:00 UTC (4 hours ago):

TAF CYOO 211938Z 2120/2208 10012G22KT P6SM FEW010 BKN250 TEMPO 2120/2124 BKN010 FM220100 11012G22KT P6SM SCT060 BKN170 TEMPO 2201/2204 P6SM -SHRA BKN060 OVC180 FM220400 12010G20KT P6SM -RA OVC050 TEMPO 2204/2206 5SM SHRA BR OVC030 FM220600 13010KT 4SM -RA BR OVC015 RMK FCST BASED ON AUTO OBS NXT FCST BY 220200Z